sensor_id;sensor_type;location;lat;lon;timestamp;P1;durP1;ratioP1;P2;durP2;ratioP2
56405;SDS011;42305;51.444;-2.584;2022-08-01T00:00:13;2.63;;;2.63;;
56405;SDS011;42305;51.444;-2.584;2022-08-01T00:02:39;2.80;;;2.80;;
56405;SDS011;42305;51.444;-2.584;2022-08-01T00:05:06;2.20;;;2.20;;
56405;SDS011;42305;51.444;-2.584;2022-08-01T00:07:33;2.60;;;2.60;;
56405;SDS011;42305;51.444;-2.584;2022-08-01T00:09:59;2.00;;;2.00;;
56405;SDS011;42305;51.444;-2.584;2022-08-01T00:12:25;3.63;;;3.42;;
56405;SDS011;42305;51.444;-2.584;2022-08-01T00:14:51;2.10;;;2.10;;
56405;SDS011;42305;51.444;-2.584;2022-08-01T00:17:17;2.60;;;2.60;;
56405;SDS011;42305;51.444;-2.584;2022-08-01T00:19:43;2.45;;;2.45;;
56405;SDS011;42305;51.444;-2.584;2022-08-01T00:22:10;2.60;;;2.60;;
56405;SDS011;42305;51.444;-2.584;2022-08-01T00:24:36;2.58;;;2.58;;
56405;SDS011;42305;51.444;-2.584;2022-08-01T00:27:02;2.13;;;2.13;;
56405;SDS011;42305;51.444;-2.584;2022-08-01T00:29:28;2.65;;;2.65;;
56405;SDS011;42305;51.444;-2.584;2022-08-01T00:31:54;2.80;;;2.70;;
56405;SDS011;42305;51.444;-2.584;2022-08-01T00:34:20;2.95;;;2.95;;
56405;SDS011;42305;51.444;-2.584;2022-08-01T00:36:46;2.67;;;2.67;;
56405;SDS011;42305;51.444;-2.584;2022-08-01T00:39:12;2.60;;;2.60;;
56405;SDS011;42305;51.444;-2.584;2022-08-01T00:41:38;2.20;;;2.20;;
56405;SDS011;42305;51.444;-2.584;2022-08-01T00:44:04;2.55;;;2.55;;
56405;SDS011;42305;51.444;-2.584;2022-08-01T00:46:31;2.60;;;2.60;;
56405;SDS011;42305;51.444;-2.584;2022-08-01T00:48:58;2.17;;;2.17;;
56405;SDS011;42305;51.444;-2.584;2022-08-01T00:51:24;2.40;;;2.40;;
56405;SDS011;42305;51.444;-2.584;2022-08-01T00:53:51;2.53;;;2.53;;
56405;SDS011;42305;51.444;-2.584;2022-08-01T00:56:18;2.05;;;2.05;;
56405;SDS011;42305;51.444;-2.584;2022-08-01T00:58:44;2.40;;;2.40;;
56405;SDS011;42305;51.444;-2.584;2022-08-01T01:01:10;2.65;;;2.65;;
56405;SDS011;42305;51.444;-2.584;2022-08-01T01:03:36;2.80;;;2.80;;
56405;SDS011;42305;51.444;-2.584;2022-08-01T01:08:33;2.75;;;2.75;;
56405;SDS011;42305;51.444;-2.584;2022-08-01T01:11:03;2.85;;;2.85;;
56405;SDS011;42305;51.444;-2.584;2022-08-01T01:15:58;2.75;;;2.75;;
56405;SDS011;42305;51.444;-2.584;2022-08-01T01:18:32;3.00;;;3.00;;
56405;SDS011;42305;51.444;-2.584;2022-08-01T01:21:03;2.80;;;2.80;;
56405;SDS011;42305;51.444;-2.584;2022-08-01T01:31:14;2.25;;;2.25;;
56405;SDS011;42305;51.444;-2.584;2022-08-01T01:33:43;2.83;;;2.83;;
56405;SDS011;42305;51.444;-2.584;2022-08-01T01:36:09;2.90;;;2.90;;
56405;SDS011;42305;51.444;-2.584;2022-08-01T01:38:39;2.90;;;2.90;;
56405;SDS011;42305;51.444;-2.584;2022-08-01T01:41:12;3.40;;;3.30;;
56405;SDS011;42305;51.444;-2.584;2022-08-01T01:43:39;2.50;;;2.50;;
56405;SDS011;42305;51.444;-2.584;2022-08-01T01:46:05;2.88;;;2.88;;
56405;SDS011;42305;51.444;-2.584;2022-08-01T01:48:32;2.20;;;2.20;;
56405;SDS011;42305;51.444;-2.584;2022-08-01T01:50:59;2.40;;;2.40;;
56405;SDS011;42305;51.444;-2.584;2022-08-01T01:53:26;2.72;;;2.72;;
56405;SDS011;42305;51.444;-2.584;2022-08-01T01:55:54;3.05;;;3.05;;
56405;SDS011;42305;51.444;-2.584;2022-08-01T01:58:21;2.90;;;2.90;;
56405;SDS011;42305;51.444;-2.584;2022-08-01T02:00:48;2.80;;;2.80;;
56405;SDS011;42305;51.444;-2.584;2022-08-01T02:03:16;2.50;;;2.50;;
56405;SDS011;42305;51.444;-2.584;2022-08-01T02:05:43;3.28;;;3.22;;
56405;SDS011;42305;51.444;-2.584;2022-08-01T02:08:10;3.00;;;3.00;;
56405;SDS011;42305;51.444;-2.584;2022-08-01T02:10:38;2.80;;;2.80;;
56405;SDS011;42305;51.444;-2.584;2022-08-01T02:13:04;2.53;;;2.53;;
56405;SDS011;42305;51.444;-2.584;2022-08-01T02:15:31;2.58;;;2.58;;
56405;SDS011;42305;51.444;-2.584;2022-08-01T02:17:58;2.90;;;2.90;;
56405;SDS011;42305;51.444;-2.584;2022-08-01T02:20:26;2.70;;;2.70;;
56405;SDS011;42305;51.444;-2.584;2022-08-01T02:22:53;2.80;;;2.80;;
56405;SDS011;42305;51.444;-2.584;2022-08-01T02:27:57;2.47;;;2.47;;
56405;SDS011;42305;51.444;-2.584;2022-08-01T02:30:26;2.80;;;2.80;;
56405;SDS011;42305;51.444;-2.584;2022-08-01T02:32:58;2.40;;;2.40;;
56405;SDS011;42305;51.444;-2.584;2022-08-01T02:35:27;2.70;;;2.70;;
56405;SDS011;42305;51.444;-2.584;2022-08-01T02:37:54;3.00;;;3.00;;
56405;SDS011;42305;51.444;-2.584;2022-08-01T02:40:20;2.80;;;2.80;;
56405;SDS011;42305;51.444;-2.584;2022-08-01T02:42:49;2.80;;;2.80;;
56405;SDS011;42305;51.444;-2.584;2022-08-01T02:45:17;2.60;;;2.60;;
56405;SDS011;42305;51.444;-2.584;2022-08-01T02:47:43;2.97;;;2.97;;
56405;SDS011;42305;51.444;-2.584;2022-08-01T02:50:10;2.72;;;2.72;;
56405;SDS011;42305;51.444;-2.584;2022-08-01T02:52:38;2.92;;;2.92;;
56405;SDS011;42305;51.444;-2.584;2022-08-01T02:55:04;3.08;;;3.08;;
56405;SDS011;42305;51.444;-2.584;2022-08-01T02:57:31;3.35;;;3.25;;
56405;SDS011;42305;51.444;-2.584;2022-08-01T02:59:59;2.50;;;2.50;;
56405;SDS011;42305;51.444;-2.584;2022-08-01T03:02:25;2.70;;;2.70;;
56405;SDS011;42305;51.444;-2.584;2022-08-01T03:04:52;2.67;;;2.67;;
56405;SDS011;42305;51.444;-2.584;2022-08-01T03:07:18;2.70;;;2.70;;
56405;SDS011;42305;51.444;-2.584;2022-08-01T03:09:45;2.80;;;2.80;;
56405;SDS011;42305;51.444;-2.584;2022-08-01T03:12:18;2.90;;;2.90;;
56405;SDS011;42305;51.444;-2.584;2022-08-01T03:14:45;2.38;;;2.38;;
56405;SDS011;42305;51.444;-2.584;2022-08-01T03:17:12;2.75;;;2.75;;
56405;SDS011;42305;51.444;-2.584;2022-08-01T03:19:39;3.00;;;3.00;;
56405;SDS011;42305;51.444;-2.584;2022-08-01T03:22:06;2.55;;;2.55;;
56405;SDS011;42305;51.444;-2.584;2022-08-01T03:24:33;2.90;;;2.90;;
56405;SDS011;42305;51.444;-2.584;2022-08-01T03:27:00;2.63;;;2.63;;
56405;SDS011;42305;51.444;-2.584;2022-08-01T03:29:27;2.50;;;2.50;;
56405;SDS011;42305;51.444;-2.584;2022-08-01T03:31:54;2.58;;;2.58;;
56405;SDS011;42305;51.444;-2.584;2022-08-01T03:34:20;2.40;;;2.40;;
56405;SDS011;42305;51.444;-2.584;2022-08-01T03:36:48;7.63;;;2.80;;
56405;SDS011;42305;51.444;-2.584;2022-08-01T03:39:16;2.55;;;2.55;;
56405;SDS011;42305;51.444;-2.584;2022-08-01T03:41:43;2.92;;;2.92;;
56405;SDS011;42305;51.444;-2.584;2022-08-01T03:44:15;2.70;;;2.70;;
56405;SDS011;42305;51.444;-2.584;2022-08-01T03:46:48;3.00;;;3.00;;
56405;SDS011;42305;51.444;-2.584;2022-08-01T03:49:20;2.92;;;2.90;;
56405;SDS011;42305;51.444;-2.584;2022-08-01T03:51:47;2.38;;;2.38;;
56405;SDS011;42305;51.444;-2.584;2022-08-01T03:54:14;2.67;;;2.67;;
56405;SDS011;42305;51.444;-2.584;2022-08-01T03:56:41;2.80;;;2.80;;
56405;SDS011;42305;51.444;-2.584;2022-08-01T03:59:08;2.35;;;2.35;;
56405;SDS011;42305;51.444;-2.584;2022-08-01T04:01:34;2.60;;;2.60;;
56405;SDS011;42305;51.444;-2.584;2022-08-01T04:04:02;2.42;;;2.42;;
56405;SDS011;42305;51.444;-2.584;2022-08-01T04:06:30;3.78;;;3.63;;
56405;SDS011;42305;51.444;-2.584;2022-08-01T04:08:56;2.80;;;2.80;;
56405;SDS011;42305;51.444;-2.584;2022-08-01T04:11:26;3.03;;;2.95;;
56405;SDS011;42305;51.444;-2.584;2022-08-01T04:13:52;2.63;;;2.63;;
56405;SDS011;42305;51.444;-2.584;2022-08-01T04:16:19;2.70;;;2.70;;
56405;SDS011;42305;51.444;-2.584;2022-08-01T04:18:45;2.55;;;2.55;;
56405;SDS011;42305;51.444;-2.584;2022-08-01T04:21:11;3.10;;;3.00;;
56405;SDS011;42305;51.444;-2.584;2022-08-01T04:23:38;2.53;;;2.53;;
56405;SDS011;42305;51.444;-2.584;2022-08-01T04:26:05;2.95;;;2.95;;
56405;SDS011;42305;51.444;-2.584;2022-08-01T04:28:31;3.05;;;3.05;;
56405;SDS011;42305;51.444;-2.584;2022-08-01T04:31:00;3.05;;;3.03;;
56405;SDS011;42305;51.444;-2.584;2022-08-01T04:33:27;3.00;;;3.00;;
56405;SDS011;42305;51.444;-2.584;2022-08-01T04:35:54;2.70;;;2.70;;
56405;SDS011;42305;51.444;-2.584;2022-08-01T04:38:22;3.10;;;3.00;;
56405;SDS011;42305;51.444;-2.584;2022-08-01T04:40:52;2.78;;;2.78;;
56405;SDS011;42305;51.444;-2.584;2022-08-01T04:43:18;2.90;;;2.90;;
56405;SDS011;42305;51.444;-2.584;2022-08-01T04:45:44;2.90;;;2.90;;
56405;SDS011;42305;51.444;-2.584;2022-08-01T04:48:12;2.60;;;2.60;;
56405;SDS011;42305;51.444;-2.584;2022-08-01T04:50:38;2.90;;;2.90;;
56405;SDS011;42305;51.444;-2.584;2022-08-01T04:53:11;3.00;;;3.00;;
56405;SDS011;42305;51.444;-2.584;2022-08-01T04:55:37;2.60;;;2.60;;
56405;SDS011;42305;51.444;-2.584;2022-08-01T04:58:03;2.67;;;2.67;;
56405;SDS011;42305;51.444;-2.584;2022-08-01T05:00:30;2.70;;;2.70;;
56405;SDS011;42305;51.444;-2.584;2022-08-01T05:02:56;2.90;;;2.90;;
56405;SDS011;42305;51.444;-2.584;2022-08-01T05:05:22;2.35;;;2.35;;
56405;SDS011;42305;51.444;-2.584;2022-08-01T05:07:48;2.80;;;2.80;;
56405;SDS011;42305;51.444;-2.584;2022-08-01T05:10:14;2.90;;;2.90;;
56405;SDS011;42305;51.444;-2.584;2022-08-01T05:12:40;2.72;;;2.72;;
56405;SDS011;42305;51.444;-2.584;2022-08-01T05:15:06;2.67;;;2.67;;
56405;SDS011;42305;51.444;-2.584;2022-08-01T05:17:32;2.47;;;2.47;;
56405;SDS011;42305;51.444;-2.584;2022-08-01T05:19:58;2.90;;;2.90;;
56405;SDS011;42305;51.444;-2.584;2022-08-01T05:22:24;2.58;;;2.58;;
56405;SDS011;42305;51.444;-2.584;2022-08-01T05:24:51;2.97;;;2.88;;
56405;SDS011;42305;51.444;-2.584;2022-08-01T05:27:17;2.40;;;2.40;;
56405;SDS011;42305;51.444;-2.584;2022-08-01T05:29:43;3.00;;;3.00;;
56405;SDS011;42305;51.444;-2.584;2022-08-01T05:32:09;2.72;;;2.72;;
56405;SDS011;42305;51.444;-2.584;2022-08-01T05:34:35;2.90;;;2.90;;
56405;SDS011;42305;51.444;-2.584;2022-08-01T05:37:01;2.83;;;2.83;;
56405;SDS011;42305;51.444;-2.584;2022-08-01T05:39:28;2.70;;;2.70;;
56405;SDS011;42305;51.444;-2.584;2022-08-01T05:41:54;2.75;;;2.75;;
56405;SDS011;42305;51.444;-2.584;2022-08-01T05:44:20;2.80;;;2.80;;
56405;SDS011;42305;51.444;-2.584;2022-08-01T05:46:46;2.78;;;2.78;;
56405;SDS011;42305;51.444;-2.584;2022-08-01T05:49:12;2.40;;;2.40;;
56405;SDS011;42305;51.444;-2.584;2022-08-01T05:51:38;2.70;;;2.70;;
56405;SDS011;42305;51.444;-2.584;2022-08-01T05:54:04;3.03;;;2.92;;
56405;SDS011;42305;51.444;-2.584;2022-08-01T05:56:30;2.55;;;2.55;;
56405;SDS011;42305;51.444;-2.584;2022-08-01T05:58:56;2.50;;;2.50;;
56405;SDS011;42305;51.444;-2.584;2022-08-01T06:01:22;3.65;;;3.45;;
56405;SDS011;42305;51.444;-2.584;2022-08-01T06:03:48;2.95;;;2.95;;
56405;SDS011;42305;51.444;-2.584;2022-08-01T06:06:14;2.28;;;2.28;;
56405;SDS011;42305;51.444;-2.584;2022-08-01T06:08:40;2.67;;;2.67;;
56405;SDS011;42305;51.444;-2.584;2022-08-01T06:11:07;2.75;;;2.75;;
56405;SDS011;42305;51.444;-2.584;2022-08-01T06:13:33;2.70;;;2.70;;
56405;SDS011;42305;51.444;-2.584;2022-08-01T06:15:59;2.70;;;2.70;;
56405;SDS011;42305;51.444;-2.584;2022-08-01T06:18:25;3.20;;;3.10;;
56405;SDS011;42305;51.444;-2.584;2022-08-01T06:20:51;3.10;;;3.10;;
56405;SDS011;42305;51.444;-2.584;2022-08-01T06:23:17;2.95;;;2.95;;
56405;SDS011;42305;51.444;-2.584;2022-08-01T06:25:43;3.30;;;3.25;;
56405;SDS011;42305;51.444;-2.584;2022-08-01T06:28:10;2.90;;;2.90;;
56405;SDS011;42305;51.444;-2.584;2022-08-01T06:30:36;3.05;;;3.00;;
56405;SDS011;42305;51.444;-2.584;2022-08-01T06:33:02;3.30;;;3.20;;
56405;SDS011;42305;51.444;-2.584;2022-08-01T06:35:29;2.80;;;2.80;;
56405;SDS011;42305;51.444;-2.584;2022-08-01T06:37:56;2.25;;;2.25;;
56405;SDS011;42305;51.444;-2.584;2022-08-01T06:40:22;2.88;;;2.88;;
56405;SDS011;42305;51.444;-2.584;2022-08-01T06:42:48;2.90;;;2.90;;
56405;SDS011;42305;51.444;-2.584;2022-08-01T06:45:14;3.55;;;3.45;;
56405;SDS011;42305;51.444;-2.584;2022-08-01T06:47:41;2.10;;;2.10;;
56405;SDS011;42305;51.444;-2.584;2022-08-01T06:50:07;2.58;;;2.58;;
56405;SDS011;42305;51.444;-2.584;2022-08-01T06:52:35;2.70;;;2.70;;
56405;SDS011;42305;51.444;-2.584;2022-08-01T06:55:01;2.42;;;2.42;;
56405;SDS011;42305;51.444;-2.584;2022-08-01T06:57:27;2.70;;;2.70;;
56405;SDS011;42305;51.444;-2.584;2022-08-01T06:59:54;2.60;;;2.60;;
56405;SDS011;42305;51.444;-2.584;2022-08-01T07:02:20;2.72;;;2.72;;
56405;SDS011;42305;51.444;-2.584;2022-08-01T07:04:46;2.75;;;2.75;;
56405;SDS011;42305;51.444;-2.584;2022-08-01T07:07:12;3.10;;;3.00;;
56405;SDS011;42305;51.444;-2.584;2022-08-01T07:09:39;5.13;;;2.80;;
56405;SDS011;42305;51.444;-2.584;2022-08-01T07:12:06;2.22;;;2.22;;
56405;SDS011;42305;51.444;-2.584;2022-08-01T07:14:32;2.95;;;2.95;;
56405;SDS011;42305;51.444;-2.584;2022-08-01T07:17:01;2.70;;;2.70;;
56405;SDS011;42305;51.444;-2.584;2022-08-01T07:19:28;2.30;;;2.30;;
56405;SDS011;42305;51.444;-2.584;2022-08-01T07:21:54;2.60;;;2.60;;
56405;SDS011;42305;51.444;-2.584;2022-08-01T07:24:20;2.50;;;2.50;;
56405;SDS011;42305;51.444;-2.584;2022-08-01T07:26:47;2.40;;;2.40;;
56405;SDS011;42305;51.444;-2.584;2022-08-01T07:29:13;2.80;;;2.80;;
56405;SDS011;42305;51.444;-2.584;2022-08-01T07:31:39;2.63;;;2.47;;
56405;SDS011;42305;51.444;-2.584;2022-08-01T07:34:06;2.75;;;2.65;;
56405;SDS011;42305;51.444;-2.584;2022-08-01T07:36:32;2.40;;;2.40;;
56405;SDS011;42305;51.444;-2.584;2022-08-01T07:38:58;2.70;;;2.70;;
56405;SDS011;42305;51.444;-2.584;2022-08-01T07:41:24;2.70;;;2.70;;
56405;SDS011;42305;51.444;-2.584;2022-08-01T07:43:50;2.20;;;2.20;;
56405;SDS011;42305;51.444;-2.584;2022-08-01T07:46:16;2.78;;;2.78;;
56405;SDS011;42305;51.444;-2.584;2022-08-01T07:48:42;2.58;;;2.58;;
56405;SDS011;42305;51.444;-2.584;2022-08-01T07:51:09;2.58;;;2.47;;
56405;SDS011;42305;51.444;-2.584;2022-08-01T07:53:35;2.60;;;2.60;;
56405;SDS011;42305;51.444;-2.584;2022-08-01T07:56:01;2.50;;;2.50;;
56405;SDS011;42305;51.444;-2.584;2022-08-01T07:58:29;2.50;;;2.50;;
56405;SDS011;42305;51.444;-2.584;2022-08-01T08:00:56;1.90;;;1.90;;
56405;SDS011;42305;51.444;-2.584;2022-08-01T08:03:22;2.10;;;2.10;;
56405;SDS011;42305;51.444;-2.584;2022-08-01T08:05:48;2.10;;;2.10;;
56405;SDS011;42305;51.444;-2.584;2022-08-01T08:08:14;2.20;;;2.20;;
56405;SDS011;42305;51.444;-2.584;2022-08-01T08:10:42;2.20;;;2.20;;
56405;SDS011;42305;51.444;-2.584;2022-08-01T08:13:08;2.30;;;2.30;;
56405;SDS011;42305;51.444;-2.584;2022-08-01T08:15:34;2.30;;;2.30;;
56405;SDS011;42305;51.444;-2.584;2022-08-01T08:18:00;2.05;;;2.05;;
56405;SDS011;42305;51.444;-2.584;2022-08-01T08:20:26;2.50;;;2.50;;
56405;SDS011;42305;51.444;-2.584;2022-08-01T08:22:54;1.90;;;1.90;;
56405;SDS011;42305;51.444;-2.584;2022-08-01T08:25:20;2.20;;;2.20;;
56405;SDS011;42305;51.444;-2.584;2022-08-01T08:27:49;12.30;;;2.63;;
56405;SDS011;42305;51.444;-2.584;2022-08-01T08:30:15;2.63;;;2.53;;
56405;SDS011;42305;51.444;-2.584;2022-08-01T08:32:41;2.70;;;2.55;;
56405;SDS011;42305;51.444;-2.584;2022-08-01T08:35:07;1.95;;;1.95;;
56405;SDS011;42305;51.444;-2.584;2022-08-01T08:37:34;2.05;;;2.05;;
56405;SDS011;42305;51.444;-2.584;2022-08-01T08:40:01;1.90;;;1.90;;
56405;SDS011;42305;51.444;-2.584;2022-08-01T08:42:27;1.70;;;1.70;;
56405;SDS011;42305;51.444;-2.584;2022-08-01T08:44:53;3.03;;;2.55;;
56405;SDS011;42305;51.444;-2.584;2022-08-01T08:47:20;2.03;;;2.03;;
56405;SDS011;42305;51.444;-2.584;2022-08-01T08:49:47;2.13;;;2.13;;
56405;SDS011;42305;51.444;-2.584;2022-08-01T08:52:13;2.00;;;2.00;;
56405;SDS011;42305;51.444;-2.584;2022-08-01T08:54:40;2.00;;;2.00;;
56405;SDS011;42305;51.444;-2.584;2022-08-01T08:57:07;2.00;;;2.00;;
56405;SDS011;42305;51.444;-2.584;2022-08-01T08:59:35;2.10;;;2.10;;
56405;SDS011;42305;51.444;-2.584;2022-08-01T09:02:02;1.80;;;1.80;;
56405;SDS011;42305;51.444;-2.584;2022-08-01T09:04:29;1.98;;;1.98;;
56405;SDS011;42305;51.444;-2.584;2022-08-01T09:06:56;1.90;;;1.90;;
56405;SDS011;42305;51.444;-2.584;2022-08-01T09:09:22;1.70;;;1.70;;
56405;SDS011;42305;51.444;-2.584;2022-08-01T09:11:48;1.73;;;1.73;;
56405;SDS011;42305;51.444;-2.584;2022-08-01T09:14:15;1.80;;;1.80;;
56405;SDS011;42305;51.444;-2.584;2022-08-01T09:16:47;1.60;;;1.60;;
56405;SDS011;42305;51.444;-2.584;2022-08-01T09:19:24;1.50;;;1.50;;
56405;SDS011;42305;51.444;-2.584;2022-08-01T09:22:03;1.60;;;1.60;;
56405;SDS011;42305;51.444;-2.584;2022-08-01T09:24:30;1.90;;;1.90;;
56405;SDS011;42305;51.444;-2.584;2022-08-01T09:26:56;1.45;;;1.45;;
56405;SDS011;42305;51.444;-2.584;2022-08-01T09:29:24;1.40;;;1.40;;
56405;SDS011;42305;51.444;-2.584;2022-08-01T09:31:50;1.70;;;1.70;;
56405;SDS011;42305;51.444;-2.584;2022-08-01T09:34:24;1.40;;;1.40;;
56405;SDS011;42305;51.444;-2.584;2022-08-01T09:39:17;1.35;;;1.35;;
56405;SDS011;42305;51.444;-2.584;2022-08-01T09:41:44;3.50;;;3.10;;
56405;SDS011;42305;51.444;-2.584;2022-08-01T09:44:10;1.70;;;1.70;;
56405;SDS011;42305;51.444;-2.584;2022-08-01T09:46:36;1.70;;;1.70;;
56405;SDS011;42305;51.444;-2.584;2022-08-01T09:49:13;1.40;;;1.40;;
56405;SDS011;42305;51.444;-2.584;2022-08-01T09:51:39;1.30;;;1.30;;
56405;SDS011;42305;51.444;-2.584;2022-08-01T09:54:06;1.25;;;1.25;;
56405;SDS011;42305;51.444;-2.584;2022-08-01T09:56:40;1.70;;;1.70;;
56405;SDS011;42305;51.444;-2.584;2022-08-01T09:59:10;1.50;;;1.50;;
56405;SDS011;42305;51.444;-2.584;2022-08-01T10:01:49;5.28;;;4.85;;
56405;SDS011;42305;51.444;-2.584;2022-08-01T10:04:17;1.35;;;1.35;;
56405;SDS011;42305;51.444;-2.584;2022-08-01T10:06:45;1.20;;;1.20;;
56405;SDS011;42305;51.444;-2.584;2022-08-01T10:09:14;1.20;;;1.20;;
56405;SDS011;42305;51.444;-2.584;2022-08-01T10:11:41;1.10;;;1.10;;
56405;SDS011;42305;51.444;-2.584;2022-08-01T10:14:07;1.40;;;1.40;;
56405;SDS011;42305;51.444;-2.584;2022-08-01T10:16:34;1.50;;;1.50;;
56405;SDS011;42305;51.444;-2.584;2022-08-01T10:19:01;1.20;;;1.20;;
56405;SDS011;42305;51.444;-2.584;2022-08-01T10:21:27;1.40;;;1.40;;
56405;SDS011;42305;51.444;-2.584;2022-08-01T10:23:55;1.08;;;1.08;;
56405;SDS011;42305;51.444;-2.584;2022-08-01T10:26:21;1.23;;;1.23;;
56405;SDS011;42305;51.444;-2.584;2022-08-01T10:28:48;1.10;;;1.10;;
56405;SDS011;42305;51.444;-2.584;2022-08-01T10:31:14;1.30;;;1.30;;
56405;SDS011;42305;51.444;-2.584;2022-08-01T10:33:42;1.20;;;1.20;;
56405;SDS011;42305;51.444;-2.584;2022-08-01T10:36:09;3.20;;;1.70;;
56405;SDS011;42305;51.444;-2.584;2022-08-01T10:38:35;1.10;;;1.10;;
56405;SDS011;42305;51.444;-2.584;2022-08-01T10:41:02;1.10;;;1.10;;
56405;SDS011;42305;51.444;-2.584;2022-08-01T10:43:28;1.20;;;1.20;;
56405;SDS011;42305;51.444;-2.584;2022-08-01T10:45:55;1.10;;;1.10;;
56405;SDS011;42305;51.444;-2.584;2022-08-01T10:48:28;1.20;;;1.20;;
56405;SDS011;42305;51.444;-2.584;2022-08-01T10:50:57;1.65;;;1.65;;
56405;SDS011;42305;51.444;-2.584;2022-08-01T10:53:24;1.42;;;1.42;;
56405;SDS011;42305;51.444;-2.584;2022-08-01T10:58:34;1.10;;;1.10;;
56405;SDS011;42305;51.444;-2.584;2022-08-01T11:01:15;1.30;;;1.30;;
56405;SDS011;42305;51.444;-2.584;2022-08-01T11:03:45;1.25;;;1.25;;
56405;SDS011;42305;51.444;-2.584;2022-08-01T11:06:24;1.40;;;1.40;;
56405;SDS011;42305;51.444;-2.584;2022-08-01T11:08:51;1.10;;;1.10;;
56405;SDS011;42305;51.444;-2.584;2022-08-01T11:11:18;1.30;;;1.30;;
56405;SDS011;42305;51.444;-2.584;2022-08-01T11:16:33;8.13;;;1.83;;
56405;SDS011;42305;51.444;-2.584;2022-08-01T11:18:59;1.02;;;1.02;;
56405;SDS011;42305;51.444;-2.584;2022-08-01T11:22:08;0.90;;;0.90;;
56405;SDS011;42305;51.444;-2.584;2022-08-01T11:24:15;1.10;;;1.10;;
56405;SDS011;42305;51.444;-2.584;2022-08-01T11:26:41;1.02;;;1.02;;
56405;SDS011;42305;51.444;-2.584;2022-08-01T11:29:27;1.40;;;1.40;;
56405;SDS011;42305;51.444;-2.584;2022-08-01T11:31:53;1.08;;;1.08;;
56405;SDS011;42305;51.444;-2.584;2022-08-01T11:34:54;1.20;;;1.20;;
56405;SDS011;42305;51.444;-2.584;2022-08-01T11:37:24;0.93;;;0.93;;
56405;SDS011;42305;51.444;-2.584;2022-08-01T11:40:36;1.00;;;1.00;;
56405;SDS011;42305;51.444;-2.584;2022-08-01T11:42:37;1.08;;;1.08;;
56405;SDS011;42305;51.444;-2.584;2022-08-01T11:45:03;0.95;;;0.95;;
56405;SDS011;42305;51.444;-2.584;2022-08-01T11:47:47;1.15;;;1.15;;
56405;SDS011;42305;51.444;-2.584;2022-08-01T11:53:02;0.50;;;0.50;;
56405;SDS011;42305;51.444;-2.584;2022-08-01T11:55:28;0.50;;;0.50;;
56405;SDS011;42305;51.444;-2.584;2022-08-01T11:58:02;0.80;;;0.80;;
56405;SDS011;42305;51.444;-2.584;2022-08-01T12:00:28;0.50;;;0.50;;
56405;SDS011;42305;51.444;-2.584;2022-08-01T12:02:56;1.67;;;1.08;;
56405;SDS011;42305;51.444;-2.584;2022-08-01T12:05:23;0.60;;;0.60;;
56405;SDS011;42305;51.444;-2.584;2022-08-01T12:07:49;0.50;;;0.50;;
56405;SDS011;42305;51.444;-2.584;2022-08-01T12:10:18;0.40;;;0.40;;
56405;SDS011;42305;51.444;-2.584;2022-08-01T12:12:50;0.55;;;0.55;;
56405;SDS011;42305;51.444;-2.584;2022-08-01T12:15:18;0.40;;;0.40;;
56405;SDS011;42305;51.444;-2.584;2022-08-01T12:17:45;0.30;;;0.30;;
56405;SDS011;42305;51.444;-2.584;2022-08-01T12:20:12;0.20;;;0.20;;
56405;SDS011;42305;51.444;-2.584;2022-08-01T12:22:39;0.28;;;0.28;;
56405;SDS011;42305;51.444;-2.584;2022-08-01T12:25:10;4.38;;;0.43;;
56405;SDS011;42305;51.444;-2.584;2022-08-01T12:27:37;0.30;;;0.30;;
56405;SDS011;42305;51.444;-2.584;2022-08-01T12:30:06;0.20;;;0.20;;
56405;SDS011;42305;51.444;-2.584;2022-08-01T12:32:34;1.88;;;1.77;;
56405;SDS011;42305;51.444;-2.584;2022-08-01T12:35:05;0.30;;;0.30;;
56405;SDS011;42305;51.444;-2.584;2022-08-01T12:37:35;0.30;;;0.30;;
56405;SDS011;42305;51.444;-2.584;2022-08-01T12:40:02;0.20;;;0.20;;
56405;SDS011;42305;51.444;-2.584;2022-08-01T12:42:28;0.30;;;0.30;;
56405;SDS011;42305;51.444;-2.584;2022-08-01T12:44:54;0.10;;;0.10;;
56405;SDS011;42305;51.444;-2.584;2022-08-01T12:47:20;0.20;;;0.20;;
56405;SDS011;42305;51.444;-2.584;2022-08-01T12:49:46;0.20;;;0.20;;
56405;SDS011;42305;51.444;-2.584;2022-08-01T12:52:13;0.10;;;0.10;;
56405;SDS011;42305;51.444;-2.584;2022-08-01T12:57:24;0.30;;;0.30;;
56405;SDS011;42305;51.444;-2.584;2022-08-01T12:59:52;0.30;;;0.30;;
56405;SDS011;42305;51.444;-2.584;2022-08-01T13:02:18;0.30;;;0.30;;
56405;SDS011;42305;51.444;-2.584;2022-08-01T13:04:51;0.45;;;0.45;;
56405;SDS011;42305;51.444;-2.584;2022-08-01T13:07:17;0.45;;;0.45;;
56405;SDS011;42305;51.444;-2.584;2022-08-01T13:09:50;0.38;;;0.38;;
56405;SDS011;42305;51.444;-2.584;2022-08-01T13:12:16;5.57;;;0.65;;
56405;SDS011;42305;51.444;-2.584;2022-08-01T13:14:42;0.30;;;0.30;;
56405;SDS011;42305;51.444;-2.584;2022-08-01T13:17:08;0.55;;;0.55;;
56405;SDS011;42305;51.444;-2.584;2022-08-01T13:19:41;0.90;;;0.85;;
56405;SDS011;42305;51.444;-2.584;2022-08-01T13:22:08;0.40;;;0.40;;
56405;SDS011;42305;51.444;-2.584;2022-08-01T13:24:34;0.40;;;0.40;;
56405;SDS011;42305;51.444;-2.584;2022-08-01T13:27:00;0.30;;;0.30;;
56405;SDS011;42305;51.444;-2.584;2022-08-01T13:29:37;0.65;;;0.65;;
56405;SDS011;42305;51.444;-2.584;2022-08-01T13:32:12;0.20;;;0.20;;
56405;SDS011;42305;51.444;-2.584;2022-08-01T13:34:38;0.30;;;0.30;;
56405;SDS011;42305;51.444;-2.584;2022-08-01T13:37:04;0.10;;;0.10;;
56405;SDS011;42305;51.444;-2.584;2022-08-01T13:39:31;0.10;;;0.10;;
56405;SDS011;42305;51.444;-2.584;2022-08-01T13:42:13;0.10;;;0.10;;
56405;SDS011;42305;51.444;-2.584;2022-08-01T13:44:39;0.17;;;0.17;;
56405;SDS011;42305;51.444;-2.584;2022-08-01T13:47:06;0.52;;;0.52;;
56405;SDS011;42305;51.444;-2.584;2022-08-01T13:49:32;0.20;;;0.20;;
56405;SDS011;42305;51.444;-2.584;2022-08-01T13:51:58;0.13;;;0.13;;
56405;SDS011;42305;51.444;-2.584;2022-08-01T13:54:25;0.00;;;0.00;;
56405;SDS011;42305;51.444;-2.584;2022-08-01T13:56:51;0.20;;;0.20;;
56405;SDS011;42305;51.444;-2.584;2022-08-01T13:59:18;0.00;;;0.00;;
56405;SDS011;42305;51.444;-2.584;2022-08-01T14:01:44;0.10;;;0.10;;
56405;SDS011;42305;51.444;-2.584;2022-08-01T14:04:11;0.00;;;0.00;;
56405;SDS011;42305;51.444;-2.584;2022-08-01T14:06:37;0.10;;;0.05;;
56405;SDS011;42305;51.444;-2.584;2022-08-01T14:09:04;0.17;;;0.10;;
56405;SDS011;42305;51.444;-2.584;2022-08-01T14:11:30;0.00;;;0.00;;
56405;SDS011;42305;51.444;-2.584;2022-08-01T14:13:56;0.00;;;0.00;;
56405;SDS011;42305;51.444;-2.584;2022-08-01T14:19:09;0.00;;;0.00;;
56405;SDS011;42305;51.444;-2.584;2022-08-01T14:21:36;0.00;;;0.00;;
56405;SDS011;42305;51.444;-2.584;2022-08-01T14:24:02;0.20;;;0.20;;
56405;SDS011;42305;51.444;-2.584;2022-08-01T14:26:28;0.00;;;0.00;;
56405;SDS011;42305;51.444;-2.584;2022-08-01T14:28:54;0.20;;;0.10;;
56405;SDS011;42305;51.444;-2.584;2022-08-01T14:31:20;0.40;;;0.15;;
56405;SDS011;42305;51.444;-2.584;2022-08-01T14:33:46;0.10;;;0.10;;
56405;SDS011;42305;51.444;-2.584;2022-08-01T14:36:13;0.00;;;0.00;;
56405;SDS011;42305;51.444;-2.584;2022-08-01T14:38:39;0.30;;;0.30;;
56405;SDS011;42305;51.444;-2.584;2022-08-01T14:41:05;0.10;;;0.10;;
56405;SDS011;42305;51.444;-2.584;2022-08-01T14:43:31;0.30;;;0.30;;
56405;SDS011;42305;51.444;-2.584;2022-08-01T14:45:58;0.08;;;0.00;;
56405;SDS011;42305;51.444;-2.584;2022-08-01T14:48:24;0.20;;;0.20;;
56405;SDS011;42305;51.444;-2.584;2022-08-01T14:50:50;0.00;;;0.00;;
56405;SDS011;42305;51.444;-2.584;2022-08-01T14:53:16;0.00;;;0.00;;
56405;SDS011;42305;51.444;-2.584;2022-08-01T14:55:43;0.00;;;0.00;;
56405;SDS011;42305;51.444;-2.584;2022-08-01T14:58:10;0.00;;;0.00;;
56405;SDS011;42305;51.444;-2.584;2022-08-01T15:00:36;0.00;;;0.00;;
56405;SDS011;42305;51.444;-2.584;2022-08-01T15:03:03;0.00;;;0.00;;
56405;SDS011;42305;51.444;-2.584;2022-08-01T15:05:29;0.00;;;0.00;;